createdAt,value
2023-02-18T00:00:23.813Z,13.70
2023-02-18T00:05:48.803Z,10.82
2023-02-18T00:10:53.351Z,22.50
2023-02-18T00:16:02.510Z,18.77
2023-02-18T00:21:09.671Z,35.70
2023-02-18T00:26:15.615Z,26.30
2023-02-18T00:31:22.124Z,27.55
2023-02-18T00:36:27.698Z,14.80
2023-02-18T00:41:32.619Z,44.60
2023-02-18T00:46:36.539Z,10.52
2023-02-18T00:51:41.731Z,19.77
2023-02-18T00:56:45.462Z,9.90
2023-02-18T01:01:49.204Z,12.65
2023-02-18T01:06:54.428Z,10.02
2023-02-18T01:11:58.097Z,16.05
2023-02-18T01:17:01.857Z,7.15
2023-02-18T01:22:07.536Z,8.63
2023-02-18T01:27:11.942Z,7.25
2023-02-18T01:32:15.773Z,3.00
2023-02-18T01:37:20.856Z,4.40
2023-02-18T01:42:26.417Z,11.43
2023-02-18T01:47:30.424Z,9.93
2023-02-18T01:52:35.478Z,10.48
2023-02-18T01:57:40.132Z,6.78
2023-02-18T02:02:47.292Z,4.50
2023-02-18T02:07:55.475Z,4.55
2023-02-18T02:13:06.785Z,6.20
2023-02-18T02:18:26.246Z,5.32
2023-02-18T02:24:22.798Z,5.97
2023-02-18T02:29:50.263Z,3.63
2023-02-18T02:34:59.841Z,4.32
2023-02-18T02:40:14.628Z,4.70
2023-02-18T02:45:25.713Z,7.70
2023-02-18T02:50:39.168Z,2.67
2023-02-18T02:55:42.903Z,4.35
2023-02-18T03:07:13.379Z,4.07
2023-02-18T03:12:26.679Z,2.67
2023-02-18T03:17:38.274Z,2.78
2023-02-18T03:22:48.714Z,3.08
2023-02-18T03:27:56.698Z,2.28
2023-02-18T03:33:05.322Z,2.88
2023-02-18T03:38:15.706Z,3.25
2023-02-18T03:43:19.405Z,3.10
2023-02-18T03:48:23.141Z,3.28
2023-02-18T03:53:30.558Z,3.55
2023-02-18T03:58:34.205Z,3.17
2023-02-18T04:03:37.841Z,5.45
2023-02-18T04:08:42.881Z,2.83
2023-02-18T04:13:46.584Z,3.08
2023-02-18T04:18:50.222Z,5.50
2023-02-18T04:23:55.257Z,1.23
2023-02-18T04:28:59.010Z,2.72
2023-02-18T04:34:02.724Z,2.63
2023-02-18T04:39:07.825Z,3.20
2023-02-18T04:44:11.520Z,3.13
2023-02-18T04:49:15.348Z,11.00
2023-02-18T04:54:20.410Z,4.55
2023-02-18T04:59:24.276Z,5.90
2023-02-18T05:04:28.124Z,1.58
2023-02-18T05:09:33.628Z,1.65
2023-02-18T05:14:37.430Z,2.67
2023-02-18T05:19:41.124Z,2.30
2023-02-18T05:24:46.234Z,2.60
2023-02-18T05:29:49.904Z,2.97
2023-02-18T05:34:53.566Z,5.63
2023-02-18T05:39:58.684Z,2.15
2023-02-18T05:45:02.390Z,4.50
2023-02-18T05:50:07.456Z,4.78
2023-02-18T05:55:12.651Z,2.38
2023-02-18T06:00:16.937Z,3.80
2023-02-18T06:05:20.815Z,3.30
2023-02-18T06:10:25.888Z,8.27
2023-02-18T06:15:29.608Z,4.90
2023-02-18T06:20:33.518Z,4.18
2023-02-18T06:25:38.562Z,3.78
2023-02-18T06:30:42.224Z,4.50
2023-02-18T06:35:55.315Z,2.50
2023-02-18T06:41:00.381Z,5.47
2023-02-18T06:46:04.445Z,9.98
2023-02-18T06:51:08.250Z,3.13
2023-02-18T06:56:13.652Z,3.05
2023-02-18T07:01:17.387Z,4.53
2023-02-18T07:06:21.118Z,3.30
2023-02-18T07:11:26.149Z,3.75
2023-02-18T07:16:30.008Z,6.93
2023-02-18T07:21:33.695Z,11.40
2023-02-18T07:26:38.937Z,8.77
2023-02-18T07:31:42.715Z,5.68
2023-02-18T07:36:46.769Z,7.25
2023-02-18T07:41:52.004Z,7.05
2023-02-18T07:46:55.767Z,3.95
2023-02-18T07:51:59.605Z,5.68
2023-02-18T07:57:04.853Z,4.15
2023-02-18T08:02:08.778Z,8.38
2023-02-18T08:07:14.551Z,9.95
2023-02-18T08:12:19.615Z,21.58
2023-02-18T08:17:23.364Z,9.88
2023-02-18T08:22:27.114Z,15.27
2023-02-18T08:27:33.070Z,12.65
2023-02-18T08:32:37.459Z,4.82
2023-02-18T08:37:52.751Z,4.10
2023-02-18T08:42:59.335Z,9.15
2023-02-18T08:48:18.202Z,11.88
2023-02-18T08:53:23.759Z,8.50
2023-02-18T08:58:28.915Z,6.40
2023-02-18T09:03:32.680Z,8.77
2023-02-18T09:08:36.468Z,15.50
2023-02-18T09:13:42.094Z,14.43
2023-02-18T09:18:46.094Z,8.93
2023-02-18T09:23:50.025Z,13.18
2023-02-18T09:28:56.517Z,76.65
2023-02-18T09:34:02.592Z,97.22
2023-02-18T09:39:06.778Z,144.13
2023-02-18T09:44:17.792Z,251.30
2023-02-18T09:49:25.986Z,206.55
2023-02-18T09:54:29.985Z,226.30
2023-02-18T09:59:35.274Z,55.55
2023-02-18T10:04:45.822Z,91.00
2023-02-18T10:09:52.174Z,146.10
2023-02-18T10:15:00.411Z,69.53
2023-02-18T10:20:07.957Z,50.38
2023-02-18T10:25:20.238Z,67.95
2023-02-18T10:30:33.738Z,11.02
2023-02-18T10:35:48.525Z,35.58
2023-02-18T10:41:02.186Z,51.42
2023-02-18T10:46:18.926Z,80.68
2023-02-18T10:51:25.734Z,65.13
2023-02-18T10:56:39.499Z,49.55
2023-02-18T11:01:45.278Z,44.38
2023-02-18T11:06:50.777Z,22.63
2023-02-18T11:12:08.347Z,16.98
2023-02-18T11:17:29.022Z,17.25
2023-02-18T11:22:37.137Z,13.85
2023-02-18T11:27:45.674Z,14.07
2023-02-18T11:32:57.438Z,16.73
2023-02-18T11:38:03.437Z,9.95
2023-02-18T11:43:13.269Z,14.82
2023-02-18T11:48:20.732Z,13.07
2023-02-18T11:53:29.573Z,21.42
2023-02-18T11:58:39.910Z,14.20
2023-02-18T12:03:50.606Z,18.05
2023-02-18T12:08:58.288Z,25.95
2023-02-18T12:14:02.365Z,31.88
2023-02-18T12:19:22.994Z,34.80
2023-02-18T12:24:46.641Z,22.77
2023-02-18T12:30:22.968Z,28.80
2023-02-18T12:35:43.299Z,33.13
2023-02-18T12:41:02.637Z,29.80
2023-02-18T12:46:32.362Z,20.58
2023-02-18T12:57:05.522Z,32.88
2023-02-18T13:02:24.599Z,27.63
2023-02-18T13:07:41.404Z,68.15
2023-02-18T13:12:50.179Z,29.52
2023-02-18T13:17:58.907Z,31.67
2023-02-18T13:23:04.942Z,40.07
2023-02-18T13:28:19.252Z,56.70
2023-02-18T13:33:36.306Z,65.03
2023-02-18T13:38:59.695Z,58.63
2023-02-18T13:44:08.240Z,42.78
2023-02-18T13:49:14.228Z,56.73
2023-02-18T13:54:26.233Z,38.80
2023-02-18T13:59:36.822Z,69.43
2023-02-18T14:04:53.901Z,54.05
2023-02-18T14:10:00.368Z,51.95
2023-02-18T14:15:23.423Z,69.38
2023-02-18T14:20:56.533Z,99.60
2023-02-18T14:26:08.057Z,60.13
2023-02-18T14:31:36.864Z,60.03
2023-02-18T14:36:47.772Z,66.30
2023-02-18T14:42:01.401Z,85.63
2023-02-18T14:47:20.860Z,71.40
2023-02-18T14:57:38.601Z,69.53
2023-02-18T15:02:42.292Z,73.22
2023-02-18T15:08:00.313Z,69.50
2023-02-18T15:13:08.790Z,71.07
2023-02-18T15:18:22.653Z,73.95
2023-02-18T15:23:26.521Z,78.63
2023-02-18T15:28:33.975Z,72.82
2023-02-18T15:33:37.781Z,83.25
2023-02-18T15:38:43.064Z,81.82
2023-02-18T15:43:56.483Z,112.53
2023-02-18T15:49:03.119Z,111.65
2023-02-18T15:54:07.026Z,140.45
2023-02-18T15:59:20.177Z,142.13
2023-02-18T16:04:26.539Z,115.93
2023-02-18T16:09:33.586Z,97.47
2023-02-18T16:14:46.729Z,129.18
2023-02-18T16:20:04.454Z,95.03
2023-02-18T16:25:17.171Z,103.13
2023-02-18T16:30:26.595Z,95.07
2023-02-18T16:35:43.879Z,71.00
2023-02-18T16:40:53.412Z,84.38
2023-02-18T16:46:01.045Z,108.60
2023-02-18T16:51:08.004Z,107.57
2023-02-18T16:56:17.745Z,67.68
2023-02-18T17:06:32.156Z,95.28
2023-02-18T17:11:37.150Z,48.35
2023-02-18T17:16:42.310Z,43.85
2023-02-18T17:21:48.592Z,62.08
2023-02-18T17:26:52.813Z,46.35
2023-02-18T17:31:58.314Z,38.80
2023-02-18T17:37:02.039Z,25.88
2023-02-18T17:42:05.925Z,29.98
2023-02-18T17:47:11.049Z,32.70
2023-02-18T17:52:30.785Z,26.35
2023-02-18T18:02:39.719Z,29.83
2023-02-18T18:07:43.694Z,66.35
2023-02-18T18:12:47.773Z,33.38
2023-02-18T18:17:53.818Z,42.58
2023-02-18T18:22:59.151Z,20.10
2023-02-18T18:28:06.798Z,30.67
2023-02-18T18:33:18.262Z,18.63
2023-02-18T18:38:23.466Z,13.10
2023-02-18T18:43:32.494Z,19.60
2023-02-18T18:48:38.231Z,15.80
2023-02-18T18:53:42.049Z,14.30
2023-02-18T18:58:45.816Z,9.40
2023-02-18T19:03:51.084Z,16.15
2023-02-18T19:08:54.870Z,9.35
2023-02-18T19:13:59.081Z,7.68
2023-02-18T19:19:04.407Z,10.07
2023-02-18T19:24:08.954Z,10.30
2023-02-18T19:29:12.689Z,8.65
2023-02-18T19:34:17.870Z,8.40
2023-02-18T19:39:21.711Z,12.88
2023-02-18T19:44:25.449Z,9.57
2023-02-18T19:49:30.566Z,9.60
2023-02-18T19:54:34.456Z,15.93
2023-02-18T19:59:38.410Z,31.35
2023-02-18T20:04:43.851Z,27.50
2023-02-18T20:09:47.958Z,17.33
2023-02-18T20:14:52.442Z,23.05
2023-02-18T20:19:58.070Z,13.25
2023-02-18T20:25:02.505Z,13.07
2023-02-18T20:30:07.805Z,23.10
2023-02-18T20:35:12.916Z,49.80
2023-02-18T20:40:17.128Z,10.07
2023-02-18T20:45:20.993Z,24.60
2023-02-18T20:50:26.190Z,79.72
2023-02-18T20:55:30.067Z,16.17
2023-02-18T21:00:33.828Z,22.85
2023-02-18T21:05:39.027Z,21.80
2023-02-18T21:10:45.525Z,38.75
2023-02-18T21:15:50.012Z,32.97
2023-02-18T21:20:55.554Z,32.53
2023-02-18T21:26:07.549Z,37.80
2023-02-18T21:31:17.799Z,32.93
2023-02-18T21:36:23.742Z,25.83
2023-02-18T21:41:28.573Z,24.38
2023-02-18T21:46:37.518Z,26.42
2023-02-18T21:52:00.574Z,23.95
2023-02-18T21:57:06.151Z,36.80
2023-02-18T22:02:16.296Z,48.05
2023-02-18T22:07:23.081Z,62.05
2023-02-18T22:12:27.331Z,26.05
2023-02-18T22:17:33.595Z,39.55
2023-02-18T22:22:38.745Z,49.47
2023-02-18T22:27:42.635Z,53.90
2023-02-18T22:32:46.562Z,17.05
2023-02-18T22:37:51.739Z,31.00
2023-02-18T22:42:55.540Z,76.15
2023-02-18T22:47:59.238Z,159.77
2023-02-18T22:53:04.832Z,123.60
2023-02-18T22:58:11.512Z,106.15
2023-02-18T23:03:15.188Z,52.03
2023-02-18T23:08:20.448Z,41.38
2023-02-18T23:13:24.107Z,22.73
2023-02-18T23:18:48.704Z,30.10
2023-02-18T23:23:57.366Z,19.67
2023-02-18T23:29:04.516Z,17.58
2023-02-18T23:34:13.418Z,22.20
2023-02-18T23:39:21.189Z,15.45
2023-02-18T23:44:27.134Z,9.45
2023-02-18T23:49:30.995Z,12.05
2023-02-18T23:54:36.224Z,14.93
2023-02-18T23:59:40.015Z,11.05
